sensor_id;sensor_type;location;lat;lon;timestamp;pressure;altitude;pressure_sealevel;temperature;humidity
50166;BME280;36071;48.140;11.516;2023-02-22T00:03:29;95440.0;;;9.3;55.3
50166;BME280;36071;48.140;11.516;2023-02-22T00:13:29;95430.0;;;9.2;55.6
50166;BME280;36071;48.140;11.516;2023-02-22T00:18:29;95340.0;;;8.8;55.1
50166;BME280;36071;48.140;11.516;2023-02-22T00:23:29;95430.0;;;9.3;54.8
50166;BME280;36071;48.140;11.516;2023-02-22T00:28:29;95430.0;;;9.1;55.0
50166;BME280;36071;48.140;11.516;2023-02-22T00:33:29;95430.0;;;9.0;55.2
50166;BME280;36071;48.140;11.516;2023-02-22T00:38:29;95430.0;;;9.0;55.5
50166;BME280;36071;48.140;11.516;2023-02-22T00:43:29;95430.0;;;8.9;55.5
50166;BME280;36071;48.140;11.516;2023-02-22T00:48:29;95420.0;;;8.7;55.8
50166;BME280;36071;48.140;11.516;2023-02-22T00:53:30;95420.0;;;8.8;55.4
50166;BME280;36071;48.140;11.516;2023-02-22T00:58:29;95420.0;;;8.7;55.1
50166;BME280;36071;48.140;11.516;2023-02-22T01:03:30;95410.0;;;8.6;55.1
50166;BME280;36071;48.140;11.516;2023-02-22T01:08:29;95410.0;;;8.6;55.3
50166;BME280;36071;48.140;11.516;2023-02-22T01:13:29;95400.0;;;8.4;55.2
50166;BME280;36071;48.140;11.516;2023-02-22T01:18:29;95390.0;;;8.3;55.5
50166;BME280;36071;48.140;11.516;2023-02-22T01:23:29;95390.0;;;8.3;55.4
50166;BME280;36071;48.140;11.516;2023-02-22T01:28:29;95390.0;;;8.4;55.4
50166;BME280;36071;48.140;11.516;2023-02-22T01:33:29;95380.0;;;8.3;55.9
50166;BME280;36071;48.140;11.516;2023-02-22T01:38:29;95390.0;;;8.3;55.5
50166;BME280;36071;48.140;11.516;2023-02-22T01:43:29;95390.0;;;8.1;56.0
50166;BME280;36071;48.140;11.516;2023-02-22T01:48:31;95390.0;;;8.0;56.2
50166;BME280;36071;48.140;11.516;2023-02-22T01:53:30;95380.0;;;8.1;56.0
50166;BME280;36071;48.140;11.516;2023-02-22T01:58:33;95380.0;;;7.8;56.8
50166;BME280;36071;48.140;11.516;2023-02-22T02:08:31;95370.0;;;7.8;56.7
50166;BME280;36071;48.140;11.516;2023-02-22T02:13:29;95370.0;;;7.6;57.2
50166;BME280;36071;48.140;11.516;2023-02-22T02:18:29;95270.0;;;6.9;56.8
50166;BME280;36071;48.140;11.516;2023-02-22T02:23:37;95360.0;;;7.3;57.6
50166;BME280;36071;48.140;11.516;2023-02-22T02:28:42;95350.0;;;7.5;56.0
50166;BME280;36071;48.140;11.516;2023-02-22T02:33:30;95340.0;;;7.5;56.1
50166;BME280;36071;48.140;11.516;2023-02-22T02:38:30;95340.0;;;7.3;55.8
50166;BME280;36071;48.140;11.516;2023-02-22T02:43:31;95330.0;;;7.4;55.7
50166;BME280;36071;48.140;11.516;2023-02-22T02:48:29;95320.0;;;7.2;55.9
50166;BME280;36071;48.140;11.516;2023-02-22T02:53:30;95320.0;;;7.2;56.3
50166;BME280;36071;48.140;11.516;2023-02-22T02:58:29;95310.0;;;7.0;57.0
50166;BME280;36071;48.140;11.516;2023-02-22T03:03:43;95310.0;;;7.0;56.6
50166;BME280;36071;48.140;11.516;2023-02-22T03:08:29;95310.0;;;7.1;56.3
50166;BME280;36071;48.140;11.516;2023-02-22T03:13:29;95310.0;;;7.1;56.1
50166;BME280;36071;48.140;11.516;2023-02-22T03:18:30;95310.0;;;7.0;56.5
50166;BME280;36071;48.140;11.516;2023-02-22T03:23:31;95300.0;;;7.0;56.2
50166;BME280;36071;48.140;11.516;2023-02-22T03:28:29;95310.0;;;7.0;56.2
50166;BME280;36071;48.140;11.516;2023-02-22T03:33:31;95310.0;;;6.9;56.8
50166;BME280;36071;48.140;11.516;2023-02-22T03:38:30;95320.0;;;6.9;56.4
50166;BME280;36071;48.140;11.516;2023-02-22T03:43:30;95330.0;;;6.9;56.7
50166;BME280;36071;48.140;11.516;2023-02-22T03:48:30;95330.0;;;6.8;57.1
50166;BME280;36071;48.140;11.516;2023-02-22T03:53:29;95330.0;;;6.8;57.0
50166;BME280;36071;48.140;11.516;2023-02-22T03:58:29;95330.0;;;6.7;57.6
50166;BME280;36071;48.140;11.516;2023-02-22T04:03:29;95330.0;;;6.6;58.2
50166;BME280;36071;48.140;11.516;2023-02-22T04:08:29;95320.0;;;6.6;58.2
50166;BME280;36071;48.140;11.516;2023-02-22T04:13:29;95310.0;;;6.5;58.9
50166;BME280;36071;48.140;11.516;2023-02-22T04:18:29;95320.0;;;6.5;58.9
50166;BME280;36071;48.140;11.516;2023-02-22T04:23:29;95310.0;;;6.5;59.2
50166;BME280;36071;48.140;11.516;2023-02-22T04:28:29;95310.0;;;6.6;58.6
50166;BME280;36071;48.140;11.516;2023-02-22T04:33:29;95310.0;;;6.6;59.1
50166;BME280;36071;48.140;11.516;2023-02-22T04:38:29;95200.0;;;5.9;58.9
50166;BME280;36071;48.140;11.516;2023-02-22T04:43:29;95300.0;;;6.5;59.4
50166;BME280;36071;48.140;11.516;2023-02-22T04:48:29;95300.0;;;6.6;59.3
50166;BME280;36071;48.140;11.516;2023-02-22T04:53:29;95300.0;;;6.4;59.7
50166;BME280;36071;48.140;11.516;2023-02-22T04:58:29;95290.0;;;6.4;59.9
50166;BME280;36071;48.140;11.516;2023-02-22T05:03:29;95290.0;;;6.3;60.3
50166;BME280;36071;48.140;11.516;2023-02-22T05:08:29;95290.0;;;6.2;60.4
50166;BME280;36071;48.140;11.516;2023-02-22T05:18:29;95290.0;;;6.2;60.5
50166;BME280;36071;48.140;11.516;2023-02-22T05:23:29;95280.0;;;6.3;60.1
50166;BME280;36071;48.140;11.516;2023-02-22T05:28:29;95270.0;;;6.3;59.5
50166;BME280;36071;48.140;11.516;2023-02-22T05:33:29;95280.0;;;6.3;59.5
50166;BME280;36071;48.140;11.516;2023-02-22T05:38:29;95280.0;;;6.3;59.7
50166;BME280;36071;48.140;11.516;2023-02-22T05:43:29;95280.0;;;6.3;59.5
50166;BME280;36071;48.140;11.516;2023-02-22T05:48:29;95270.0;;;6.3;58.0
50166;BME280;36071;48.140;11.516;2023-02-22T05:53:29;95270.0;;;6.3;57.5
50166;BME280;36071;48.140;11.516;2023-02-22T05:58:29;95210.0;;;5.6;57.4
50166;BME280;36071;48.140;11.516;2023-02-22T06:03:29;95270.0;;;6.2;56.7
50166;BME280;36071;48.140;11.516;2023-02-22T06:08:29;95270.0;;;6.2;56.3
50166;BME280;36071;48.140;11.516;2023-02-22T06:13:29;95270.0;;;6.2;56.2
50166;BME280;36071;48.140;11.516;2023-02-22T06:18:29;95270.0;;;6.1;56.7
50166;BME280;36071;48.140;11.516;2023-02-22T06:23:30;95270.0;;;6.0;56.1
50166;BME280;36071;48.140;11.516;2023-02-22T06:28:29;95280.0;;;5.8;57.0
50166;BME280;36071;48.140;11.516;2023-02-22T06:33:29;95280.0;;;6.0;56.2
50166;BME280;36071;48.140;11.516;2023-02-22T06:38:29;95270.0;;;5.9;56.1
50166;BME280;36071;48.140;11.516;2023-02-22T06:43:29;95290.0;;;5.9;56.5
50166;BME280;36071;48.140;11.516;2023-02-22T06:48:29;95300.0;;;5.9;56.7
50166;BME280;36071;48.140;11.516;2023-02-22T06:53:29;95300.0;;;5.9;57.1
50166;BME280;36071;48.140;11.516;2023-02-22T06:58:29;95300.0;;;6.2;56.8
50166;BME280;36071;48.140;11.516;2023-02-22T07:03:29;95300.0;;;6.2;56.6
50166;BME280;36071;48.140;11.516;2023-02-22T07:08:29;95300.0;;;6.5;56.0
50166;BME280;36071;48.140;11.516;2023-02-22T07:13:29;95300.0;;;6.4;56.1
50166;BME280;36071;48.140;11.516;2023-02-22T07:18:29;95300.0;;;6.6;56.0
50166;BME280;36071;48.140;11.516;2023-02-22T07:23:29;95300.0;;;6.8;55.4
50166;BME280;36071;48.140;11.516;2023-02-22T07:28:29;95300.0;;;7.1;54.2
50166;BME280;36071;48.140;11.516;2023-02-22T07:33:29;95300.0;;;7.2;54.5
50166;BME280;36071;48.140;11.516;2023-02-22T07:38:29;95300.0;;;7.4;53.5
50166;BME280;36071;48.140;11.516;2023-02-22T07:43:29;95300.0;;;7.8;52.3
50166;BME280;36071;48.140;11.516;2023-02-22T07:48:29;95300.0;;;8.1;51.1
50166;BME280;36071;48.140;11.516;2023-02-22T07:53:30;95300.0;;;8.4;50.5
50166;BME280;36071;48.140;11.516;2023-02-22T07:58:29;95290.0;;;8.5;50.7
50166;BME280;36071;48.140;11.516;2023-02-22T08:03:29;95290.0;;;8.8;50.0
50166;BME280;36071;48.140;11.516;2023-02-22T08:08:29;95290.0;;;9.1;48.3
50166;BME280;36071;48.140;11.516;2023-02-22T08:13:29;95280.0;;;9.4;48.0
50166;BME280;36071;48.140;11.516;2023-02-22T08:18:29;95280.0;;;9.5;48.9
50166;BME280;36071;48.140;11.516;2023-02-22T08:23:29;95270.0;;;9.8;48.6
50166;BME280;36071;48.140;11.516;2023-02-22T08:28:31;95270.0;;;10.1;46.6
50166;BME280;36071;48.140;11.516;2023-02-22T08:33:29;95260.0;;;10.3;47.6
50166;BME280;36071;48.140;11.516;2023-02-22T08:38:29;95260.0;;;10.9;47.7
50166;BME280;36071;48.140;11.516;2023-02-22T08:43:29;95260.0;;;11.5;44.0
50166;BME280;36071;48.140;11.516;2023-02-22T08:48:29;95270.0;;;11.8;42.7
50166;BME280;36071;48.140;11.516;2023-02-22T08:53:29;95250.0;;;12.1;42.5
50166;BME280;36071;48.140;11.516;2023-02-22T08:58:29;95250.0;;;12.3;43.5
50166;BME280;36071;48.140;11.516;2023-02-22T09:03:29;95250.0;;;12.5;43.6
50166;BME280;36071;48.140;11.516;2023-02-22T09:08:29;95240.0;;;12.9;41.2
50166;BME280;36071;48.140;11.516;2023-02-22T09:13:29;95240.0;;;13.5;40.8
50166;BME280;36071;48.140;11.516;2023-02-22T09:18:29;95240.0;;;13.6;38.7
50166;BME280;36071;48.140;11.516;2023-02-22T09:23:29;95230.0;;;14.3;37.6
50166;BME280;36071;48.140;11.516;2023-02-22T09:28:34;95230.0;;;14.7;36.2
50166;BME280;36071;48.140;11.516;2023-02-22T09:33:29;95230.0;;;14.7;36.4
50166;BME280;36071;48.140;11.516;2023-02-22T09:38:29;95230.0;;;15.4;35.5
50166;BME280;36071;48.140;11.516;2023-02-22T09:43:32;95230.0;;;15.9;34.4
50166;BME280;36071;48.140;11.516;2023-02-22T09:48:29;95220.0;;;16.1;32.8
50166;BME280;36071;48.140;11.516;2023-02-22T09:53:31;95220.0;;;16.6;32.7
50166;BME280;36071;48.140;11.516;2023-02-22T09:58:30;95210.0;;;17.5;32.0
50166;BME280;36071;48.140;11.516;2023-02-22T10:03:31;95200.0;;;17.9;32.7
50166;BME280;36071;48.140;11.516;2023-02-22T10:08:30;95200.0;;;19.0;30.4
50166;BME280;36071;48.140;11.516;2023-02-22T10:13:31;95200.0;;;19.3;29.8
50166;BME280;36071;48.140;11.516;2023-02-22T10:18:37;95190.0;;;19.1;29.1
50166;BME280;36071;48.140;11.516;2023-02-22T10:23:31;95190.0;;;19.1;28.7
50166;BME280;36071;48.140;11.516;2023-02-22T10:28:30;95190.0;;;19.6;28.9
50166;BME280;36071;48.140;11.516;2023-02-22T10:33:29;95190.0;;;20.0;27.8
50166;BME280;36071;48.140;11.516;2023-02-22T10:38:30;95180.0;;;20.2;28.1
50166;BME280;36071;48.140;11.516;2023-02-22T10:43:29;95180.0;;;20.5;26.3
50166;BME280;36071;48.140;11.516;2023-02-22T10:48:29;95180.0;;;20.5;27.7
50166;BME280;36071;48.140;11.516;2023-02-22T10:53:29;95170.0;;;20.9;26.9
50166;BME280;36071;48.140;11.516;2023-02-22T10:58:29;95160.0;;;21.7;26.4
50166;BME280;36071;48.140;11.516;2023-02-22T11:03:29;95170.0;;;22.0;25.1
50166;BME280;36071;48.140;11.516;2023-02-22T11:08:29;95160.0;;;23.0;24.7
50166;BME280;36071;48.140;11.516;2023-02-22T11:13:30;95160.0;;;23.5;23.8
50166;BME280;36071;48.140;11.516;2023-02-22T11:18:30;95150.0;;;23.6;23.3
50166;BME280;36071;48.140;11.516;2023-02-22T11:23:29;95130.0;;;23.2;23.4
50166;BME280;36071;48.140;11.516;2023-02-22T11:28:29;95120.0;;;23.2;23.5
50166;BME280;36071;48.140;11.516;2023-02-22T11:33:29;95130.0;;;23.6;23.0
50166;BME280;36071;48.140;11.516;2023-02-22T11:38:29;95110.0;;;23.4;23.6
50166;BME280;36071;48.140;11.516;2023-02-22T11:43:29;95110.0;;;23.2;23.2
50166;BME280;36071;48.140;11.516;2023-02-22T11:48:30;95110.0;;;23.5;23.6
50166;BME280;36071;48.140;11.516;2023-02-22T11:53:30;95100.0;;;23.8;22.5
50166;BME280;36071;48.140;11.516;2023-02-22T11:58:32;95090.0;;;22.9;23.6
50166;BME280;36071;48.140;11.516;2023-02-22T12:03:33;95090.0;;;23.0;25.1
50166;BME280;36071;48.140;11.516;2023-02-22T12:08:31;95080.0;;;22.6;25.8
50166;BME280;36071;48.140;11.516;2023-02-22T12:13:32;95080.0;;;22.6;24.6
50166;BME280;36071;48.140;11.516;2023-02-22T12:18:30;95080.0;;;22.9;24.5
50166;BME280;36071;48.140;11.516;2023-02-22T12:23:30;95080.0;;;22.4;25.2
50166;BME280;36071;48.140;11.516;2023-02-22T12:28:31;95070.0;;;22.5;24.8
50166;BME280;36071;48.140;11.516;2023-02-22T12:33:30;95070.0;;;22.0;25.1
50166;BME280;36071;48.140;11.516;2023-02-22T12:38:29;95060.0;;;21.7;26.4
50166;BME280;36071;48.140;11.516;2023-02-22T12:43:31;94980.0;;;21.4;26.0
50166;BME280;36071;48.140;11.516;2023-02-22T12:48:32;95060.0;;;21.1;26.8
50166;BME280;36071;48.140;11.516;2023-02-22T12:53:30;95050.0;;;20.6;27.4
50166;BME280;36071;48.140;11.516;2023-02-22T12:58:31;95050.0;;;21.0;27.7
50166;BME280;36071;48.140;11.516;2023-02-22T13:03:31;95050.0;;;21.2;27.6
50166;BME280;36071;48.140;11.516;2023-02-22T13:08:30;95040.0;;;21.5;27.6
50166;BME280;36071;48.140;11.516;2023-02-22T13:13:31;95040.0;;;21.2;27.7
50166;BME280;36071;48.140;11.516;2023-02-22T13:18:30;95030.0;;;21.3;27.4
50166;BME280;36071;48.140;11.516;2023-02-22T13:23:32;95030.0;;;20.8;28.2
50166;BME280;36071;48.140;11.516;2023-02-22T13:28:30;95030.0;;;20.7;28.9
50166;BME280;36071;48.140;11.516;2023-02-22T13:33:34;95030.0;;;20.8;27.6
50166;BME280;36071;48.140;11.516;2023-02-22T13:38:48;95020.0;;;21.2;28.6
50166;BME280;36071;48.140;11.516;2023-02-22T13:43:40;95020.0;;;21.9;27.1
50166;BME280;36071;48.140;11.516;2023-02-22T13:48:34;95010.0;;;22.1;27.4
50166;BME280;36071;48.140;11.516;2023-02-22T13:53:31;95010.0;;;22.0;26.4
50166;BME280;36071;48.140;11.516;2023-02-22T13:58:29;95000.0;;;21.5;27.8
50166;BME280;36071;48.140;11.516;2023-02-22T14:03:31;95010.0;;;21.7;28.9
50166;BME280;36071;48.140;11.516;2023-02-22T14:08:44;95010.0;;;21.5;27.7
50166;BME280;36071;48.140;11.516;2023-02-22T14:13:29;95010.0;;;21.0;29.3
50166;BME280;36071;48.140;11.516;2023-02-22T14:18:29;95010.0;;;21.3;29.2
50166;BME280;36071;48.140;11.516;2023-02-22T14:23:33;95010.0;;;21.3;28.2
50166;BME280;36071;48.140;11.516;2023-02-22T14:28:34;95020.0;;;21.2;28.4
50166;BME280;36071;48.140;11.516;2023-02-22T14:33:51;95010.0;;;20.7;29.3
50166;BME280;36071;48.140;11.516;2023-02-22T14:43:31;94980.0;;;19.5;30.2
50166;BME280;36071;48.140;11.516;2023-02-22T14:48:29;95020.0;;;19.4;30.3
50166;BME280;36071;48.140;11.516;2023-02-22T14:53:29;95020.0;;;19.2;30.5
50166;BME280;36071;48.140;11.516;2023-02-22T14:58:31;95020.0;;;19.0;30.6
50166;BME280;36071;48.140;11.516;2023-02-22T15:03:30;95020.0;;;18.8;30.8
50166;BME280;36071;48.140;11.516;2023-02-22T15:08:29;94930.0;;;18.2;31.0
50166;BME280;36071;48.140;11.516;2023-02-22T15:13:29;95030.0;;;18.9;30.9
50166;BME280;36071;48.140;11.516;2023-02-22T15:18:31;95020.0;;;18.7;30.8
50166;BME280;36071;48.140;11.516;2023-02-22T15:23:37;95020.0;;;18.6;31.4
50166;BME280;36071;48.140;11.516;2023-02-22T15:28:29;95020.0;;;18.8;30.8
50166;BME280;36071;48.140;11.516;2023-02-22T15:33:29;95020.0;;;18.6;30.9
50166;BME280;36071;48.140;11.516;2023-02-22T15:38:29;95020.0;;;18.5;30.9
50166;BME280;36071;48.140;11.516;2023-02-22T15:43:29;95020.0;;;18.5;31.1
50166;BME280;36071;48.140;11.516;2023-02-22T15:48:29;95010.0;;;18.3;31.3
50166;BME280;36071;48.140;11.516;2023-02-22T15:53:29;95010.0;;;18.2;30.8
50166;BME280;36071;48.140;11.516;2023-02-22T15:58:29;95020.0;;;18.3;31.3
50166;BME280;36071;48.140;11.516;2023-02-22T16:03:32;95020.0;;;18.1;31.5
50166;BME280;36071;48.140;11.516;2023-02-22T16:08:29;95030.0;;;17.9;31.9
50166;BME280;36071;48.140;11.516;2023-02-22T16:13:29;95030.0;;;17.8;32.5
50166;BME280;36071;48.140;11.516;2023-02-22T16:18:30;95030.0;;;17.8;32.2
50166;BME280;36071;48.140;11.516;2023-02-22T16:23:29;95040.0;;;17.8;32.2
50166;BME280;36071;48.140;11.516;2023-02-22T16:28:29;95040.0;;;17.5;32.3
50166;BME280;36071;48.140;11.516;2023-02-22T16:33:29;95030.0;;;17.4;32.7
50166;BME280;36071;48.140;11.516;2023-02-22T16:38:30;95030.0;;;17.2;33.5
50166;BME280;36071;48.140;11.516;2023-02-22T16:43:29;95040.0;;;17.0;33.4
50166;BME280;36071;48.140;11.516;2023-02-22T16:48:29;95050.0;;;17.1;33.3
50166;BME280;36071;48.140;11.516;2023-02-22T16:53:29;95050.0;;;16.9;33.7
50166;BME280;36071;48.140;11.516;2023-02-22T16:58:31;95060.0;;;16.8;34.1
50166;BME280;36071;48.140;11.516;2023-02-22T17:03:29;95060.0;;;16.7;34.1
50166;BME280;36071;48.140;11.516;2023-02-22T17:08:29;95060.0;;;16.6;34.7
50166;BME280;36071;48.140;11.516;2023-02-22T17:13:29;95060.0;;;16.4;35.5
50166;BME280;36071;48.140;11.516;2023-02-22T17:18:29;95060.0;;;16.4;35.3
50166;BME280;36071;48.140;11.516;2023-02-22T17:23:29;95070.0;;;16.2;35.6
50166;BME280;36071;48.140;11.516;2023-02-22T17:28:29;95070.0;;;16.1;35.7
50166;BME280;36071;48.140;11.516;2023-02-22T17:33:29;95080.0;;;15.9;36.2
50166;BME280;36071;48.140;11.516;2023-02-22T17:38:29;95080.0;;;15.8;37.3
50166;BME280;36071;48.140;11.516;2023-02-22T17:43:29;95080.0;;;15.5;38.7
50166;BME280;36071;48.140;11.516;2023-02-22T17:48:29;95090.0;;;15.4;38.5
50166;BME280;36071;48.140;11.516;2023-02-22T17:53:29;95080.0;;;15.4;38.4
50166;BME280;36071;48.140;11.516;2023-02-22T17:58:29;95090.0;;;15.4;38.3
50166;BME280;36071;48.140;11.516;2023-02-22T18:03:29;95090.0;;;15.3;38.0
50166;BME280;36071;48.140;11.516;2023-02-22T18:08:29;95090.0;;;15.1;38.5
50166;BME280;36071;48.140;11.516;2023-02-22T18:13:29;95080.0;;;15.0;38.7
50166;BME280;36071;48.140;11.516;2023-02-22T18:18:29;95080.0;;;14.8;38.9
50166;BME280;36071;48.140;11.516;2023-02-22T18:28:30;95080.0;;;14.7;39.1
50166;BME280;36071;48.140;11.516;2023-02-22T18:33:29;95080.0;;;14.4;39.6
50166;BME280;36071;48.140;11.516;2023-02-22T18:38:29;95080.0;;;14.3;40.2
50166;BME280;36071;48.140;11.516;2023-02-22T18:43:29;95070.0;;;14.0;40.9
50166;BME280;36071;48.140;11.516;2023-02-22T18:48:29;95080.0;;;14.1;41.0
50166;BME280;36071;48.140;11.516;2023-02-22T18:53:29;95080.0;;;13.9;41.5
50166;BME280;36071;48.140;11.516;2023-02-22T18:58:29;95080.0;;;13.8;41.6
50166;BME280;36071;48.140;11.516;2023-02-22T19:03:29;95090.0;;;13.6;42.3
50166;BME280;36071;48.140;11.516;2023-02-22T19:08:29;95080.0;;;13.3;43.0
50166;BME280;36071;48.140;11.516;2023-02-22T19:13:29;95090.0;;;13.3;43.2
50166;BME280;36071;48.140;11.516;2023-02-22T19:18:29;95090.0;;;13.2;43.6
50166;BME280;36071;48.140;11.516;2023-02-22T19:23:29;95090.0;;;13.0;44.5
50166;BME280;36071;48.140;11.516;2023-02-22T19:28:29;95090.0;;;13.2;44.2
50166;BME280;36071;48.140;11.516;2023-02-22T19:33:29;95090.0;;;13.0;44.8
50166;BME280;36071;48.140;11.516;2023-02-22T19:38:29;95100.0;;;12.6;45.9
50166;BME280;36071;48.140;11.516;2023-02-22T19:43:29;95100.0;;;12.6;46.1
50166;BME280;36071;48.140;11.516;2023-02-22T19:48:29;95110.0;;;12.2;47.2
50166;BME280;36071;48.140;11.516;2023-02-22T19:53:29;95110.0;;;12.1;47.5
50166;BME280;36071;48.140;11.516;2023-02-22T19:58:30;95110.0;;;11.8;48.5
50166;BME280;36071;48.140;11.516;2023-02-22T20:03:30;95110.0;;;11.9;48.4
50166;BME280;36071;48.140;11.516;2023-02-22T20:08:29;95120.0;;;12.1;48.1
50166;BME280;36071;48.140;11.516;2023-02-22T20:13:29;95110.0;;;11.9;48.6
50166;BME280;36071;48.140;11.516;2023-02-22T20:18:29;95120.0;;;11.9;48.8
50166;BME280;36071;48.140;11.516;2023-02-22T20:23:29;95120.0;;;11.7;49.5
50166;BME280;36071;48.140;11.516;2023-02-22T20:28:29;95140.0;;;11.7;49.6
50166;BME280;36071;48.140;11.516;2023-02-22T20:33:29;95120.0;;;11.8;49.6
50166;BME280;36071;48.140;11.516;2023-02-22T20:38:29;95130.0;;;11.5;50.4
50166;BME280;36071;48.140;11.516;2023-02-22T20:43:29;95130.0;;;11.5;50.5
50166;BME280;36071;48.140;11.516;2023-02-22T20:48:33;95090.0;;;11.3;50.2
50166;BME280;36071;48.140;11.516;2023-02-22T20:53:29;95130.0;;;11.4;51.1
50166;BME280;36071;48.140;11.516;2023-02-22T20:58:29;95140.0;;;11.5;50.7
50166;BME280;36071;48.140;11.516;2023-02-22T21:03:31;95130.0;;;11.3;51.4
50166;BME280;36071;48.140;11.516;2023-02-22T21:08:29;95130.0;;;11.3;51.3
50166;BME280;36071;48.140;11.516;2023-02-22T21:13:29;95130.0;;;11.2;51.7
50166;BME280;36071;48.140;11.516;2023-02-22T21:18:29;95120.0;;;11.1;51.9
50166;BME280;36071;48.140;11.516;2023-02-22T21:23:29;95130.0;;;11.1;51.8
50166;BME280;36071;48.140;11.516;2023-02-22T21:28:29;95130.0;;;11.1;51.6
50166;BME280;36071;48.140;11.516;2023-02-22T21:33:29;95120.0;;;10.9;52.1
50166;BME280;36071;48.140;11.516;2023-02-22T21:38:29;95130.0;;;11.1;52.2
50166;BME280;36071;48.140;11.516;2023-02-22T21:43:29;95130.0;;;10.9;52.7
50166;BME280;36071;48.140;11.516;2023-02-22T21:53:29;95130.0;;;10.8;53.4
50166;BME280;36071;48.140;11.516;2023-02-22T21:58:29;95130.0;;;10.6;54.0
50166;BME280;36071;48.140;11.516;2023-02-22T22:03:30;95130.0;;;10.8;53.2
50166;BME280;36071;48.140;11.516;2023-02-22T22:08:29;95130.0;;;10.6;54.3
50166;BME280;36071;48.140;11.516;2023-02-22T22:13:29;95120.0;;;10.7;53.8
50166;BME280;36071;48.140;11.516;2023-02-22T22:18:29;95130.0;;;10.6;54.4
50166;BME280;36071;48.140;11.516;2023-02-22T22:23:29;95130.0;;;10.6;54.0
50166;BME280;36071;48.140;11.516;2023-02-22T22:28:29;95130.0;;;10.7;53.9
50166;BME280;36071;48.140;11.516;2023-02-22T22:33:29;95120.0;;;10.5;54.9
50166;BME280;36071;48.140;11.516;2023-02-22T22:38:29;95120.0;;;10.2;56.0
50166;BME280;36071;48.140;11.516;2023-02-22T22:43:29;95120.0;;;10.3;55.8
50166;BME280;36071;48.140;11.516;2023-02-22T22:48:29;95120.0;;;10.5;55.1
50166;BME280;36071;48.140;11.516;2023-02-22T22:53:34;95110.0;;;10.2;56.5
50166;BME280;36071;48.140;11.516;2023-02-22T22:58:29;95120.0;;;10.1;56.9
50166;BME280;36071;48.140;11.516;2023-02-22T23:03:30;95120.0;;;10.2;57.0
50166;BME280;36071;48.140;11.516;2023-02-22T23:08:29;95120.0;;;10.1;57.4
50166;BME280;36071;48.140;11.516;2023-02-22T23:13:29;95130.0;;;10.1;57.2
50166;BME280;36071;48.140;11.516;2023-02-22T23:18:29;95130.0;;;10.0;58.3
50166;BME280;36071;48.140;11.516;2023-02-22T23:23:29;95140.0;;;9.9;59.2
50166;BME280;36071;48.140;11.516;2023-02-22T23:28:29;95140.0;;;10.0;58.2
50166;BME280;36071;48.140;11.516;2023-02-22T23:33:29;95150.0;;;9.8;59.2
50166;BME280;36071;48.140;11.516;2023-02-22T23:38:29;95140.0;;;9.7;60.0
50166;BME280;36071;48.140;11.516;2023-02-22T23:43:29;95150.0;;;9.8;59.2
50166;BME280;36071;48.140;11.516;2023-02-22T23:48:29;95140.0;;;9.7;59.6
50166;BME280;36071;48.140;11.516;2023-02-22T23:53:29;95140.0;;;9.7;59.8
50166;BME280;36071;48.140;11.516;2023-02-22T23:58:29;95140.0;;;9.6;60.7
